Time;durP1;ratioP1;P1;durP2;ratioP2;P2;SDS_P1;SDS_P2;PMS_P1;PMS_P2;Temp;Humidity;BMP_temperature;BMP_pressure;BME280_temperature;BME280_humidity;BME280_pressure;Samples;Min_cycle;Max_cycle;Signal;HPM_P1;HPM_P2
2023/06/05 00:01:09;;;;;;;2.80;1.60;;;;;;;12.60;59.46;100085.75;107035;1258;72764;-40
2023/06/05 00:03:39;;;;;;;3.50;1.80;;;;;;;12.59;59.24;100086.35;107064;1264;60495;-40
2023/06/05 00:06:07;;;;;;;3.00;1.60;;;;;;;12.57;58.79;100088.71;107130;1257;60421;-40
2023/06/05 00:08:35;;;;;;;3.50;1.50;;;;;;;12.53;58.44;100087.23;107036;1263;73842;-40
2023/06/05 00:11:02;;;;;;;2.10;1.80;;;;;;;12.52;58.06;100084.70;107029;1258;66340;-40
2023/06/05 00:13:30;;;;;;;4.60;1.70;;;;;;;12.48;57.70;100082.91;107061;1263;72661;-40
2023/06/05 00:15:58;;;;;;;2.70;1.40;;;;;;;12.43;57.43;100082.81;107070;1257;60393;-40
2023/06/05 00:18:26;;;;;;;3.20;1.70;;;;;;;12.38;57.11;100082.30;107035;1258;60319;-39
2023/06/05 00:20:53;;;;;;;3.80;1.50;;;;;;;12.33;56.91;100084.06;107228;1257;71604;-39
2023/06/05 00:23:21;;;;;;;2.60;1.80;;;;;;;12.30;56.88;100082.95;107044;1258;67146;-39
2023/06/05 00:25:49;;;;;;;2.50;1.70;;;;;;;12.26;56.70;100082.46;107025;1262;73018;-40
2023/06/05 00:28:17;;;;;;;2.50;1.60;;;;;;;12.23;56.69;100085.20;107047;1260;59229;-39
2023/06/05 00:30:46;;;;;;;1.90;1.50;;;;;;;12.20;57.26;100084.74;107061;1258;60278;-39
2023/06/05 00:33:13;;;;;;;5.00;1.70;;;;;;;12.18;58.53;100087.98;106295;1264;1003754;-40
2023/06/05 00:35:41;;;;;;;3.60;1.50;;;;;;;12.16;59.35;100085.75;107074;1262;67880;-40
2023/06/05 00:38:08;;;;;;;3.20;1.50;;;;;;;12.17;59.76;100081.25;107052;1260;72714;-40
2023/06/05 00:40:36;;;;;;;2.80;1.70;;;;;;;12.15;59.70;100085.72;107039;1264;60325;-40
2023/06/05 00:43:05;;;;;;;3.10;1.90;;;;;;;12.13;59.87;100091.02;106765;1263;427534;-40
2023/06/05 00:46:57;;;;;;;5.80;2.00;;;;;;;12.13;59.15;100086.59;104331;1289;600450;-39
2023/06/05 00:49:25;;;;;;;2.40;1.80;;;;;;;12.09;58.83;100084.80;106608;1265;59118;-39
2023/06/05 00:51:53;;;;;;;4.10;1.80;;;;;;;12.07;58.77;100078.06;106659;1265;59181;-39
2023/06/05 00:54:22;;;;;;;5.20;1.70;;;;;;;12.02;58.82;100076.31;106609;1267;72234;-40
2023/06/05 00:56:51;;;;;;;5.30;1.70;;;;;;;11.96;58.89;100079.27;106625;1266;67894;-39
2023/06/05 00:59:19;;;;;;;4.60;1.80;;;;;;;11.92;58.92;100078.46;106717;1267;72690;-40
2023/06/05 01:01:48;;;;;;;4.80;1.80;;;;;;;11.90;58.57;100077.95;106718;1264;214088;-40
2023/06/05 01:04:16;;;;;;;3.40;1.70;;;;;;;11.87;57.98;100079.65;106868;1263;60047;-40
2023/06/05 01:06:45;;;;;;;5.50;1.70;;;;;;;11.83;57.58;100080.50;106874;1267;71366;-40
2023/06/05 01:09:13;;;;;;;4.20;2.00;;;;;;;11.81;57.58;100080.91;106755;1263;67737;-40
2023/06/05 01:11:50;;;;;;;2.20;1.60;;;;;;;11.77;57.78;100080.96;106839;1263;72712;-40
2023/06/05 01:14:17;;;;;;;7.90;1.60;;;;;;;11.71;57.66;100075.14;106840;1262;60080;-41
2023/06/05 01:16:53;;;;;;;5.30;1.90;;;;;;;11.65;57.71;100071.47;106757;1263;60092;-41
2023/06/05 01:19:24;;;;;;;4.00;1.50;;;;;;;11.60;57.67;100076.25;106830;1263;73033;-41
2023/06/05 01:21:52;;;;;;;3.90;1.60;;;;;;;11.55;57.78;100069.83;106835;1263;67640;-41
2023/06/05 01:24:22;;;;;;;2.10;1.40;;;;;;;11.49;57.88;100070.14;106820;1264;72717;-41
2023/06/05 01:27:03;;;;;;;5.10;1.50;;;;;;;11.42;57.87;100074.96;106744;1263;59456;-41
2023/06/05 01:29:44;;;;;;;;;;;;;;;11.35;58.07;100073.40;106773;1263;60054;-41
2023/06/05 01:32:15;;;;;;;1.60;1.40;;;;;;;11.25;58.23;100071.27;106677;1267;71770;-41
2023/06/05 01:34:44;;;;;;;2.40;1.70;;;;;;;11.20;58.46;100073.21;106688;1264;67737;-41
2023/06/05 01:37:14;;;;;;;3.30;1.70;;;;;;;11.21;58.39;100071.29;106745;1264;72679;-41
2023/06/05 01:39:42;;;;;;;3.60;1.70;;;;;;;11.20;58.34;100073.30;106792;1267;60117;-41
2023/06/05 01:42:10;;;;;;;2.60;1.50;;;;;;;11.19;58.23;100071.93;106804;1264;59908;-41
2023/06/05 01:44:39;;;;;;;2.50;1.50;;;;;;;11.17;58.03;100070.58;106764;1264;73045;-41
2023/06/05 01:47:07;;;;;;;4.10;1.60;;;;;;;11.16;58.04;100070.31;107305;1257;66281;-41
2023/06/05 01:49:35;;;;;;;2.00;1.30;;;;;;;11.13;58.13;100070.16;107258;1256;72512;-41
2023/06/05 01:52:03;;;;;;;4.30;1.30;;;;;;;11.10;58.23;100069.29;107259;1257;60076;-41
2023/06/05 01:54:32;;;;;;;6.00;1.60;;;;;;;11.08;58.45;100068.85;107225;1257;60048;-41
2023/06/05 01:57:00;;;;;;;7.80;2.00;;;;;;;11.07;58.64;100071.05;107217;1257;71820;-40
2023/06/05 01:59:28;;;;;;;2.50;1.30;;;;;;;11.05;58.59;100068.98;107227;1257;66637;-41
2023/06/05 02:01:56;;;;;;;5.90;1.70;;;;;;;11.05;58.82;100073.88;107149;1260;71424;-41
2023/06/05 02:04:24;;;;;;;3.10;1.40;;;;;;;11.05;58.89;100072.25;107143;1257;60269;-41
2023/06/05 02:06:53;;;;;;;1.80;1.50;;;;;;;11.02;58.93;100069.31;107190;1257;60037;-40
2023/06/05 02:09:20;;;;;;;4.20;1.60;;;;;;;11.00;58.77;100066.29;107151;1257;73126;-40
2023/06/05 02:11:53;;;;;;;1.60;1.30;;;;;;;10.98;58.66;100068.95;107314;1257;66352;-41
2023/06/05 02:14:22;;;;;;;5.30;1.60;;;;;;;10.99;58.89;100068.60;107212;1261;72714;-40
2023/06/05 02:16:49;;;;;;;4.80;1.40;;;;;;;11.00;58.92;100073.27;107197;1257;60205;-40
2023/06/05 02:19:18;;;;;;;3.90;1.60;;;;;;;11.02;58.80;100071.30;107201;1257;60001;-39
2023/06/05 02:21:46;;;;;;;2.00;1.50;;;;;;;11.02;58.74;100073.33;107187;1257;73123;-40
2023/06/05 02:24:18;;;;;;;3.80;1.50;;;;;;;11.02;58.38;100073.94;107237;1257;66305;-40
2023/06/05 02:26:46;;;;;;;6.00;1.80;;;;;;;11.06;58.66;100079.96;107111;1257;72701;-39
2023/06/05 02:29:13;;;;;;;4.70;1.80;;;;;;;11.09;58.98;100079.66;107106;1257;59378;-40
2023/06/05 02:31:41;;;;;;;6.00;1.80;;;;;;;11.10;59.11;100081.05;107217;1257;59488;-40
2023/06/05 02:34:09;;;;;;;4.30;1.40;;;;;;;11.09;59.21;100083.07;107225;1257;73091;-39
2023/06/05 02:36:38;;;;;;;5.30;1.80;;;;;;;11.11;59.29;100082.95;107134;1257;66898;-40
2023/06/05 02:39:06;;;;;;;5.40;1.70;;;;;;;11.13;59.44;100087.81;107106;1257;72684;-40
2023/06/05 02:41:33;;;;;;;4.00;1.60;;;;;;;11.14;59.49;100080.34;107227;1257;60062;-40
2023/06/05 02:44:04;;;;;;;4.50;1.60;;;;;;;11.17;59.63;100077.99;107216;1257;59574;-39
2023/06/05 02:46:32;;;;;;;2.90;1.50;;;;;;;11.18;59.66;100077.11;107202;1257;71743;-40
2023/06/05 02:48:59;;;;;;;3.60;1.50;;;;;;;11.19;59.76;100073.88;107232;1261;65363;-39
2023/06/05 02:51:27;;;;;;;5.60;1.80;;;;;;;11.25;59.94;100077.31;107156;1257;71424;-39
2023/06/05 02:53:55;;;;;;;3.60;1.40;;;;;;;11.36;59.76;100079.23;107229;1257;60331;-40
2023/06/05 02:56:26;;;;;;;3.50;1.50;;;;;;;11.44;59.40;100074.86;107248;1262;59513;-39
2023/06/05 02:58:56;;;;;;;10.10;2.20;;;;;;;11.52;59.42;100075.09;107229;1256;73487;-40
2023/06/05 03:01:25;;;;;;;5.40;1.60;;;;;;;11.60;59.68;100079.26;107147;1257;67603;-39
2023/06/05 03:03:53;;;;;;;5.10;2.00;;;;;;;11.68;59.40;100082.65;107271;1257;71396;-39
2023/06/05 03:06:27;;;;;;;6.00;2.10;;;;;;;11.75;59.02;100078.58;107217;1259;59612;-39
2023/06/05 03:08:55;;;;;;;6.70;2.10;;;;;;;11.83;59.25;100076.84;107255;1257;59257;-39
2023/06/05 03:11:25;;;;;;;3.40;1.60;;;;;;;11.88;59.54;100077.52;107299;1257;73015;-39
2023/06/05 03:13:53;;;;;;;2.20;1.50;;;;;;;11.91;59.50;100078.05;107249;1257;66594;-39
2023/06/05 03:16:23;;;;;;;7.60;1.80;;;;;;;11.96;59.69;100077.87;107090;1262;71400;-39
2023/06/05 03:18:54;;;;;;;2.20;1.60;;;;;;;12.01;59.60;100080.02;107254;1257;59666;-39
2023/06/05 03:21:22;;;;;;;1.60;1.20;;;;;;;12.06;59.83;100082.00;107112;1257;59294;-39
2023/06/05 03:23:49;;;;;;;2.60;1.60;;;;;;;12.10;59.83;100079.38;107261;1262;73022;-39
2023/06/05 03:26:18;;;;;;;3.00;1.40;;;;;;;12.15;59.98;100079.88;107264;1262;66418;-39
2023/06/05 03:28:46;;;;;;;2.00;1.40;;;;;;;12.20;60.09;100081.56;107213;1257;72753;-39
2023/06/05 03:31:15;;;;;;;4.00;1.40;;;;;;;12.27;60.02;100078.22;107256;1257;59667;-39
2023/06/05 03:33:45;;;;;;;2.70;1.80;;;;;;;12.33;59.92;100084.73;107301;1257;59538;-39
2023/06/05 03:36:17;;;;;;;3.30;1.70;;;;;;;12.39;59.80;100081.06;107277;1256;71761;-39
2023/06/05 03:38:45;;;;;;;2.00;1.40;;;;;;;12.46;59.12;100083.34;107281;1257;66599;-39
2023/06/05 03:41:13;;;;;;;4.30;1.30;;;;;;;12.52;57.94;100077.73;107213;1257;71378;-39
2023/06/05 03:43:40;;;;;;;5.90;1.40;;;;;;;12.61;56.32;100085.30;107250;1257;59941;-39
2023/06/05 03:46:10;;;;;;;1.90;1.30;;;;;;;12.69;55.21;100085.40;107211;1256;60046;-39
2023/06/05 03:48:39;;;;;;;3.50;1.50;;;;;;;12.77;53.69;100082.69;107139;1257;73111;-39
2023/06/05 03:51:07;;;;;;;2.40;1.40;;;;;;;12.84;52.93;100082.37;107270;1257;68033;-39
2023/06/05 03:53:39;;;;;;;3.10;1.40;;;;;;;12.90;52.11;100086.31;107103;1260;72667;-39
2023/06/05 03:56:08;;;;;;;1.90;1.40;;;;;;;12.96;52.07;100087.62;107116;1257;59399;-39
2023/06/05 03:58:41;;;;;;;3.00;1.50;;;;;;;13.04;52.35;100089.02;107241;1257;59499;-39
2023/06/05 04:01:09;;;;;;;5.10;1.50;;;;;;;13.12;52.42;100088.95;107201;1257;73028;-39
2023/06/05 04:03:38;;;;;;;3.20;1.80;;;;;;;13.17;52.51;100091.63;107264;1259;66493;-39
2023/06/05 04:06:06;;;;;;;2.10;1.50;;;;;;;13.23;52.62;100089.52;107179;1257;71450;-39
2023/06/05 04:08:33;;;;;;;3.50;1.50;;;;;;;13.31;52.78;100091.53;107227;1257;59675;-39
2023/06/05 04:11:01;;;;;;;5.10;1.60;;;;;;;13.40;53.01;100089.14;107208;1257;59949;-39
2023/06/05 04:13:29;;;;;;;1.90;1.40;;;;;;;13.49;52.98;100090.71;107210;1258;73004;-39
2023/06/05 04:15:58;;;;;;;3.30;1.40;;;;;;;13.59;53.03;100089.71;107182;1257;67682;-39
2023/06/05 04:18:25;;;;;;;3.40;1.70;;;;;;;13.67;52.52;100091.83;107230;1257;71370;-39
2023/06/05 04:20:53;;;;;;;2.80;1.70;;;;;;;13.75;52.14;100091.89;107227;1260;59618;-39
2023/06/05 04:23:22;;;;;;;2.90;1.50;;;;;;;13.86;51.96;100089.52;107247;1257;60052;-39
2023/06/05 04:25:54;;;;;;;3.50;1.60;;;;;;;13.97;51.63;100090.86;107137;1257;70853;-39
2023/06/05 04:28:23;;;;;;;3.10;1.50;;;;;;;14.07;51.30;100090.80;107249;1257;66316;-39
2023/06/05 04:30:51;;;;;;;5.10;1.60;;;;;;;14.17;50.80;100092.75;107200;1257;72636;-39
2023/06/05 04:33:19;;;;;;;2.80;1.80;;;;;;;14.27;51.02;100096.35;107219;1260;59704;-39
2023/06/05 04:35:48;;;;;;;4.90;1.80;;;;;;;14.40;50.71;100095.95;107144;1257;60059;-39
2023/06/05 04:38:20;;;;;;;4.50;1.60;;;;;;;14.52;50.05;100095.81;107149;1257;73062;-39
2023/06/05 04:40:50;;;;;;;2.20;1.40;;;;;;;14.65;49.71;100099.90;107276;1257;66630;-39
2023/06/05 04:43:18;;;;;;;2.20;1.70;;;;;;;14.78;49.58;100099.92;107267;1260;71414;-39
2023/06/05 04:45:47;;;;;;;4.20;1.50;;;;;;;14.90;49.29;100098.84;107256;1257;59704;-39
2023/06/05 04:48:15;;;;;;;2.90;1.50;;;;;;;15.03;49.08;100096.51;107268;1260;59301;-39
2023/06/05 04:50:43;;;;;;;7.40;1.70;;;;;;;15.17;48.67;100094.56;107051;1257;73448;-39
2023/06/05 04:53:11;;;;;;;3.00;1.40;;;;;;;15.31;48.48;100094.81;107248;1257;65319;-39
2023/06/05 04:55:40;;;;;;;2.10;1.50;;;;;;;15.45;47.18;100093.58;107255;1257;72699;-39
2023/06/05 04:58:08;;;;;;;2.20;1.40;;;;;;;15.59;46.56;100092.73;107232;1257;60443;-39
2023/06/05 05:00:36;;;;;;;1.70;1.30;;;;;;;15.74;47.17;100095.92;107238;1262;60297;-40
2023/06/05 05:03:04;;;;;;;2.40;1.60;;;;;;;15.88;46.67;100094.18;107280;1257;73890;-39
2023/06/05 05:05:34;;;;;;;3.30;1.30;;;;;;;16.02;46.52;100095.64;107226;1258;66360;-40
2023/06/05 05:08:04;;;;;;;4.20;1.50;;;;;;;16.15;45.75;100093.17;107271;1257;71478;-40
2023/06/05 05:10:32;;;;;;;3.30;1.50;;;;;;;16.28;45.68;100094.52;107203;1259;60442;-39
2023/06/05 05:13:03;;;;;;;3.30;1.60;;;;;;;16.38;45.01;100092.80;107171;1257;59221;-39
2023/06/05 05:15:31;;;;;;;4.10;1.40;;;;;;;16.50;44.57;100090.69;107275;1257;71623;-39
2023/06/05 05:18:03;;;;;;;2.50;1.30;;;;;;;16.62;44.28;100090.79;107238;1263;67583;-39
2023/06/05 05:20:34;;;;;;;2.60;1.40;;;;;;;16.73;44.35;100090.94;107242;1257;72683;-40
2023/06/05 05:23:02;;;;;;;2.10;1.40;;;;;;;16.85;44.49;100092.09;107269;1257;60159;-40
2023/06/05 05:25:30;;;;;;;2.60;1.30;;;;;;;17.00;44.26;100092.88;107255;1257;60473;-40
2023/06/05 05:27:58;;;;;;;2.70;1.50;;;;;;;17.14;43.93;100093.02;107256;1257;72601;-40
2023/06/05 05:30:26;;;;;;;3.20;1.40;;;;;;;17.27;43.64;100088.75;107226;1257;66295;-40
2023/06/05 05:32:55;;;;;;;2.50;1.20;;;;;;;17.40;42.95;100092.48;107228;1258;72699;-39
2023/06/05 05:35:22;;;;;;;3.20;1.60;;;;;;;17.51;43.13;100091.41;107214;1257;60482;-40
2023/06/05 05:37:50;;;;;;;6.50;1.70;;;;;;;17.63;42.82;100092.23;107300;1262;60319;-39
2023/06/05 05:40:18;;;;;;;2.40;1.30;;;;;;;17.75;42.98;100094.47;107226;1261;73976;-40
2023/06/05 05:42:46;;;;;;;1.40;1.10;;;;;;;17.87;43.09;100091.81;107198;1257;67584;-39
2023/06/05 05:45:13;;;;;;;1.70;1.00;;;;;;;17.99;42.12;100090.18;107191;1257;72691;-40
2023/06/05 05:47:41;;;;;;;1.60;1.20;;;;;;;18.11;42.06;100089.24;107231;1258;60523;-40
2023/06/05 05:50:10;;;;;;;1.90;1.10;;;;;;;18.24;41.52;100089.79;107244;1262;60654;-40
2023/06/05 05:52:38;;;;;;;2.20;1.20;;;;;;;18.35;41.49;100092.44;107257;1257;72854;-40
2023/06/05 05:55:08;;;;;;;2.90;1.20;;;;;;;18.46;40.40;100089.60;107231;1257;67573;-40
2023/06/05 05:57:35;;;;;;;2.90;1.30;;;;;;;18.56;40.69;100093.30;107251;1263;73258;-40
2023/06/05 06:00:08;;;;;;;3.40;1.30;;;;;;;18.66;39.36;100094.77;107186;1261;60430;-39
2023/06/05 06:02:41;;;;;;;1.70;1.10;;;;;;;18.76;39.90;100096.08;107229;1258;60386;-40
2023/06/05 06:05:09;;;;;;;1.90;1.30;;;;;;;18.84;39.93;100097.87;107223;1257;74425;-40
2023/06/05 06:07:37;;;;;;;2.50;1.50;;;;;;;18.95;39.63;100094.69;107196;1257;67881;-40
2023/06/05 06:10:06;;;;;;;3.40;1.30;;;;;;;19.05;38.84;100088.92;107225;1261;72701;-40
2023/06/05 06:12:34;;;;;;;3.00;1.10;;;;;;;19.15;38.89;100092.02;107272;1257;60391;-40
2023/06/05 06:15:01;;;;;;;3.40;1.10;;;;;;;19.26;37.27;100089.23;107209;1257;60475;-40
2023/06/05 06:17:29;;;;;;;4.50;1.10;;;;;;;19.36;37.08;100089.74;107214;1262;73875;-40
2023/06/05 06:19:57;;;;;;;3.00;1.00;;;;;;;19.46;36.38;100087.73;107214;1257;65965;-40
2023/06/05 06:22:26;;;;;;;2.10;1.00;;;;;;;19.55;34.70;100086.73;107220;1260;71453;-40
2023/06/05 06:24:54;;;;;;;4.00;1.10;;;;;;;19.64;34.77;100087.71;107214;1261;60403;-40
2023/06/05 06:27:24;;;;;;;1.40;0.80;;;;;;;19.70;34.44;100083.91;107219;1257;60872;-40
2023/06/05 06:29:55;;;;;;;1.40;1.00;;;;;;;19.79;34.39;100087.70;107284;1257;72559;-40
2023/06/05 06:32:23;;;;;;;1.60;1.30;;;;;;;19.85;33.78;100084.04;107244;1256;66434;-40
2023/06/05 06:34:53;;;;;;;1.80;1.00;;;;;;;19.92;33.32;100090.18;107270;1263;72665;-40
2023/06/05 06:37:22;;;;;;;3.00;0.90;;;;;;;19.98;32.30;100087.94;107210;1262;59597;-40
2023/06/05 06:39:50;;;;;;;1.10;0.90;;;;;;;20.06;33.33;100084.74;107230;1257;60527;-40
2023/06/05 06:42:18;;;;;;;1.60;0.90;;;;;;;20.13;32.60;100087.74;107243;1257;72617;-40
2023/06/05 06:44:55;;;;;;;2.20;1.20;;;;;;;20.18;32.55;100080.47;107305;1257;66601;-40
2023/06/05 06:47:25;;;;;;;1.80;1.20;;;;;;;20.25;33.16;100083.55;107209;1257;72721;-40
2023/06/05 06:49:53;;;;;;;3.90;0.90;;;;;;;20.35;33.03;100083.80;107234;1261;60373;-40
2023/06/05 06:52:21;;;;;;;2.30;1.00;;;;;;;20.44;32.43;100085.46;107230;1257;60473;-40
2023/06/05 06:54:52;;;;;;;3.30;1.20;;;;;;;20.52;32.38;100090.17;107249;1262;73912;-39
2023/06/05 06:57:20;;;;;;;4.10;1.00;;;;;;;20.57;31.40;100088.55;107276;1257;66758;-39
2023/06/05 06:59:48;;;;;;;1.00;0.90;;;;;;;20.60;31.14;100091.52;107279;1258;70594;-40
2023/06/05 07:02:16;;;;;;;2.20;1.10;;;;;;;20.62;31.58;100090.95;107199;1263;60386;-40
2023/06/05 07:04:44;;;;;;;1.10;0.80;;;;;;;20.66;31.98;100092.95;107235;1258;60581;-39
2023/06/05 07:07:13;;;;;;;2.70;0.90;;;;;;;20.73;31.39;100094.77;107238;1262;74317;-40
2023/06/05 07:09:42;;;;;;;1.70;1.10;;;;;;;20.81;31.25;100096.33;107287;1257;66292;-40
2023/06/05 07:12:11;;;;;;;2.10;0.90;;;;;;;20.87;30.84;100095.88;107229;1257;72697;-40
2023/06/05 07:14:38;;;;;;;1.90;0.90;;;;;;;20.96;31.32;100092.61;107301;1259;60427;-40
2023/06/05 07:17:07;;;;;;;2.70;1.00;;;;;;;21.10;31.29;100088.45;107228;1257;60434;-39
2023/06/05 07:19:36;;;;;;;1.60;1.00;;;;;;;21.22;30.89;100087.59;107242;1257;73985;-40
2023/06/05 07:22:04;;;;;;;1.80;1.00;;;;;;;21.34;30.61;100087.92;107510;1254;67895;-40
2023/06/05 07:24:33;;;;;;;4.10;1.00;;;;;;;21.43;30.56;100088.03;107548;1254;72671;-40
2023/06/05 07:27:02;;;;;;;1.80;0.90;;;;;;;21.53;30.63;100091.84;107541;1256;60382;-40
2023/06/05 07:29:30;;;;;;;4.50;1.10;;;;;;;21.64;31.06;100088.44;107581;1259;59258;-40
2023/06/05 07:31:58;;;;;;;1.00;0.90;;;;;;;21.76;30.52;100086.54;107499;1254;73199;-40
2023/06/05 07:34:26;;;;;;;2.70;1.10;;;;;;;21.88;30.20;100085.56;107563;1254;66765;-40
2023/06/05 07:36:56;;;;;;;1.60;1.00;;;;;;;22.03;29.79;100083.21;107526;1259;72678;-40
2023/06/05 07:39:24;;;;;;;1.80;1.00;;;;;;;22.22;29.65;100082.35;107490;1254;60893;-39
2023/06/05 07:41:51;;;;;;;2.30;1.10;;;;;;;22.35;28.68;100084.81;107523;1254;60751;-40
2023/06/05 07:44:21;;;;;;;3.50;0.90;;;;;;;22.41;28.58;100082.17;107513;1254;73002;-40
2023/06/05 07:46:49;;;;;;;2.70;1.20;;;;;;;22.47;29.39;100079.16;107591;1254;67652;-40
2023/06/05 07:49:17;;;;;;;2.00;0.80;;;;;;;22.47;27.61;100079.14;107551;1254;71453;-40
2023/06/05 07:51:46;;;;;;;1.60;0.90;;;;;;;22.34;27.67;100077.09;107526;1253;60417;-40
2023/06/05 07:54:15;;;;;;;3.10;1.40;;;;;;;22.24;28.39;100086.59;107580;1254;60533;-40
2023/06/05 07:56:43;;;;;;;1.50;1.00;;;;;;;22.16;27.86;100083.10;107522;1254;73860;-40
2023/06/05 07:59:14;;;;;;;2.30;1.30;;;;;;;22.03;28.28;100084.31;107492;1259;66613;-40
2023/06/05 08:01:42;;;;;;;1.50;1.00;;;;;;;21.95;28.64;100082.09;107538;1260;71414;-40
2023/06/05 08:04:12;;;;;;;1.30;1.00;;;;;;;21.87;28.03;100082.81;107510;1254;60536;-40
2023/06/05 08:06:41;;;;;;;2.70;1.20;;;;;;;21.80;27.40;100087.73;107503;1259;60306;-40
2023/06/05 08:09:09;;;;;;;1.60;1.20;;;;;;;21.79;29.03;100087.91;107610;1256;73835;-40
2023/06/05 08:11:37;;;;;;;1.40;1.00;;;;;;;21.90;29.19;100088.37;107500;1254;67907;-40
2023/06/05 08:14:06;;;;;;;1.70;1.10;;;;;;;22.13;28.88;100091.90;107633;1257;72667;-40
2023/06/05 08:16:34;;;;;;;3.30;1.10;;;;;;;22.35;27.48;100092.05;107646;1254;60385;-40
2023/06/05 08:19:02;;;;;;;1.80;1.10;;;;;;;22.49;27.65;100092.77;107545;1258;60383;-40
2023/06/05 08:21:30;;;;;;;2.30;1.10;;;;;;;22.53;27.44;100090.16;107508;1260;73928;-40
2023/06/05 08:23:57;;;;;;;1.70;1.20;;;;;;;22.54;27.39;100100.11;107497;1254;68050;-40
2023/06/05 08:26:25;;;;;;;1.90;1.30;;;;;;;22.51;28.02;100096.67;107462;1259;72721;-40
2023/06/05 08:28:53;;;;;;;3.00;1.10;;;;;;;22.50;27.41;100099.71;107480;1255;60590;-41
2023/06/05 08:31:21;;;;;;;1.70;1.10;;;;;;;22.50;27.74;100097.41;107511;1260;60256;-40
2023/06/05 08:33:49;;;;;;;2.70;1.00;;;;;;;22.63;27.97;100092.37;107514;1260;73886;-41
2023/06/05 08:36:18;;;;;;;2.30;1.20;;;;;;;22.79;28.16;100095.57;107498;1260;67885;-40
2023/06/05 08:38:45;;;;;;;3.00;1.20;;;;;;;22.89;27.42;100088.24;107633;1254;73530;-40
2023/06/05 08:41:13;;;;;;;2.50;1.10;;;;;;;22.95;26.64;100090.41;107614;1258;60533;-40
2023/06/05 08:43:41;;;;;;;1.50;1.10;;;;;;;22.88;26.59;100093.55;107519;1254;60367;-40
2023/06/05 08:46:09;;;;;;;1.70;1.30;;;;;;;22.78;26.48;100090.98;107516;1254;73881;-40
2023/06/05 08:48:45;;;;;;;2.40;1.30;;;;;;;22.65;26.35;100089.56;107645;1255;67888;-40
2023/06/05 08:51:14;;;;;;;1.50;0.90;;;;;;;22.53;26.40;100085.27;107500;1260;72733;-40
2023/06/05 08:53:45;;;;;;;3.80;1.50;;;;;;;22.45;26.40;100084.33;107652;1254;60472;-40
2023/06/05 08:56:13;;;;;;;2.30;1.30;;;;;;;22.43;26.68;100084.76;107641;1253;60167;-41
2023/06/05 08:58:40;;;;;;;1.20;1.00;;;;;;;22.52;26.90;100079.52;107433;1254;72362;-40
2023/06/05 09:01:09;;;;;;;1.60;1.00;;;;;;;22.69;28.47;100080.10;107540;1254;67941;-40
2023/06/05 09:03:37;;;;;;;3.40;1.00;;;;;;;22.79;28.68;100080.86;107519;1254;71825;-39
2023/06/05 09:06:05;;;;;;;3.00;1.30;;;;;;;22.90;27.62;100079.38;107570;1260;60463;-40
2023/06/05 09:08:33;;;;;;;2.20;1.10;;;;;;;23.05;27.18;100076.56;107548;1253;60424;-40
2023/06/05 09:11:27;;;;;;;1.90;1.20;;;;;;;23.26;26.90;100075.00;107624;1259;71840;-40
2023/06/05 09:13:56;;;;;;;1.30;1.20;;;;;;;23.56;26.99;100072.88;107418;1255;67945;-40
2023/06/05 09:16:33;;;;;;;1.50;1.20;;;;;;;23.78;26.61;100072.11;107544;1255;72743;-41
2023/06/05 09:19:01;;;;;;;3.10;1.30;;;;;;;24.05;26.17;100072.82;107510;1255;60362;-40
2023/06/05 09:21:32;;;;;;;1.90;1.10;;;;;;;24.19;25.51;100062.43;107501;1255;60303;-39
2023/06/05 09:24:23;;;;;;;2.80;1.30;;;;;;;24.28;25.14;100062.13;107646;1254;73871;-40
2023/06/05 09:27:11;;;;;;;2.60;1.30;;;;;;;24.33;24.82;100054.96;107536;1254;67947;-40
2023/06/05 09:29:40;;;;;;;4.30;1.20;;;;;;;24.43;25.88;100054.59;107511;1259;71777;-40
2023/06/05 09:32:14;;;;;;;1.40;1.30;;;;;;;24.60;24.14;100054.30;107661;1257;60386;-40
2023/06/05 09:34:41;;;;;;;2.00;1.30;;;;;;;24.72;24.55;100054.21;107659;1254;60666;-40
2023/06/05 09:37:10;;;;;;;1.40;0.90;;;;;;;24.78;24.30;100051.44;107537;1254;73868;-40
2023/06/05 09:39:44;;;;;;;2.10;1.20;;;;;;;24.75;24.23;100058.25;107582;1254;67713;-40
2023/06/05 09:42:12;;;;;;;3.90;1.40;;;;;;;24.62;23.85;100053.20;107515;1252;72654;-40
2023/06/05 09:44:39;;;;;;;2.40;1.30;;;;;;;24.46;23.79;100048.27;107506;1260;60306;-41
2023/06/05 09:47:11;;;;;;;2.90;1.30;;;;;;;24.35;24.08;100048.39;107516;1254;60268;-40
2023/06/05 09:49:42;;;;;;;1.40;1.00;;;;;;;24.21;24.33;100045.60;107552;1259;72652;-40
2023/06/05 09:52:12;;;;;;;3.60;1.40;;;;;;;24.05;25.53;100048.20;107531;1254;67604;-40
2023/06/05 09:54:46;;;;;;;2.20;1.50;;;;;;;23.92;26.11;100044.48;107548;1255;73002;-40
2023/06/05 09:57:15;;;;;;;2.10;1.20;;;;;;;23.82;26.42;100046.86;107534;1254;60507;-41
2023/06/05 09:59:51;;;;;;;2.50;1.30;;;;;;;23.69;26.09;100047.48;107618;1253;60364;-40
2023/06/05 10:02:32;;;;;;;1.70;1.10;;;;;;;23.57;25.58;100048.64;107680;1254;72546;-40
2023/06/05 10:05:03;;;;;;;1.30;1.10;;;;;;;23.43;25.72;100045.71;107558;1254;67577;-40
2023/06/05 10:07:38;;;;;;;2.60;1.50;;;;;;;23.34;26.64;100045.82;107501;1254;71489;-40
2023/06/05 10:10:09;;;;;;;2.40;1.20;;;;;;;23.35;26.60;100042.02;107498;1254;60450;-40
2023/06/05 10:12:36;;;;;;;2.20;1.40;;;;;;;23.35;25.67;100040.34;107666;1256;60303;-40
2023/06/05 10:15:05;;;;;;;2.10;1.30;;;;;;;23.32;26.57;100039.54;107440;1254;72559;-40
2023/06/05 10:17:33;;;;;;;2.30;1.20;;;;;;;23.34;27.26;100039.34;107575;1259;66316;-40
2023/06/05 10:20:01;;;;;;;3.40;1.40;;;;;;;23.40;27.14;100040.96;107486;1254;73050;-40
2023/06/05 10:22:29;;;;;;;1.60;1.20;;;;;;;23.45;26.39;100043.63;107500;1254;60325;-40
2023/06/05 10:24:58;;;;;;;3.00;1.30;;;;;;;23.46;26.57;100042.34;107484;1254;60500;-40
2023/06/05 10:27:28;;;;;;;2.10;1.40;;;;;;;23.47;26.08;100043.68;107531;1253;74616;-40
2023/06/05 10:30:11;;;;;;;1.90;1.30;;;;;;;23.43;25.71;100043.09;107503;1254;66967;-40
2023/06/05 10:33:05;;;;;;;1.30;1.20;;;;;;;23.38;25.81;100042.09;107469;1254;72661;-40
2023/06/05 10:35:49;;;;;;;4.40;1.40;;;;;;;23.43;25.55;100041.28;107467;1254;60548;-40
2023/06/05 10:38:18;;;;;;;2.40;1.30;;;;;;;23.45;25.84;100038.89;107495;1254;60511;-40
2023/06/05 10:41:04;;;;;;;1.80;1.30;;;;;;;23.50;25.66;100038.45;107541;1253;73088;-40
2023/06/05 10:43:33;;;;;;;2.70;1.30;;;;;;;23.53;26.59;100041.55;107476;1254;67592;-41
2023/06/05 10:46:02;;;;;;;3.40;1.40;;;;;;;23.62;26.70;100035.48;107533;1254;72644;-40
2023/06/05 10:49:11;;;;;;;2.30;1.30;;;;;;;23.78;26.52;100031.29;107660;1254;60387;-41
2023/06/05 10:51:49;;;;;;;1.90;1.20;;;;;;;24.15;26.75;100026.67;107524;1254;60508;-40
2023/06/05 10:54:23;;;;;;;2.40;1.10;;;;;;;24.55;26.36;100019.52;107541;1254;73872;-40
2023/06/05 10:56:51;;;;;;;1.80;1.30;;;;;;;25.02;26.11;100015.42;107530;1254;67631;-40
2023/06/05 10:59:20;;;;;;;5.50;1.40;;;;;;;25.51;25.47;100011.21;107494;1254;71100;-40
2023/06/05 11:02:16;;;;;;;2.00;1.40;;;;;;;26.03;25.30;100009.12;107524;1254;60408;-40
2023/06/05 11:04:46;;;;;;;1.90;1.20;;;;;;;26.55;23.57;100002.65;107626;1254;60514;-40
2023/06/05 11:07:30;;;;;;;1.60;1.10;;;;;;;26.62;23.13;100001.27;107554;1259;72632;-40
2023/06/05 11:10:20;;;;;;;3.20;1.30;;;;;;;26.50;22.53;100000.61;107494;1258;67759;-40
2023/06/05 11:12:54;;;;;;;1.90;1.30;;;;;;;26.35;22.78;100001.98;107537;1254;72731;-40
2023/06/05 11:15:22;;;;;;;1.80;1.20;;;;;;;26.12;22.49;99997.21;107497;1254;60286;-41
2023/06/05 11:17:50;;;;;;;2.70;1.20;;;;;;;25.90;22.64;99994.66;107508;1253;60460;-41
2023/06/05 11:20:21;;;;;;;2.80;1.40;;;;;;;25.72;23.13;99995.95;107493;1254;74347;-40
2023/06/05 11:22:58;;;;;;;1.80;1.20;;;;;;;25.72;24.27;99990.65;107514;1259;68353;-40
2023/06/05 11:25:32;;;;;;;2.50;1.20;;;;;;;25.79;24.38;99988.10;107495;1254;71490;-41
2023/06/05 11:28:07;;;;;;;3.90;1.30;;;;;;;25.84;23.47;99994.85;107539;1254;60478;-40
2023/06/05 11:30:45;;;;;;;1.70;1.20;;;;;;;25.72;23.53;99994.22;107517;1254;60498;-41